Terminal Aerodrome Forecast
Issued by NWS Mt. Holly, NJ

Home | Current Version | Previous Version | Text Only | Print | Product List | Glossary On
Versions: 1 2 3 4 5 6 7 8 9 10 11 12 13 14 15 16 17 18 19 20 21 22 23 24 25
000
FTUS41 KPHI 230500
TAFTTN
TAF
KTTN 230532Z 2306/2406 04003KT P6SM SCT025 BKN045
     FM230800 07005KT P6SM OVC025
     FM231000 08004KT 6SM BR OVC009
     FM231300 10005KT P6SM OVC020
     FM231800 11006KT P6SM SCT025 BKN050
     FM240400 VRB02KT P6SM SCT050 SCT120=

USA.gov is the U.S. government's official web portal to all federal, state and local government web resources and services.